Latest Weather Observations for Deniliquin

IDN60801

Issued at 10:05 am EST Wednesday 1 October 2014 (issued every 30 minutes, with the page automatically refreshed every 10 minutes)

About weather observations | Map of weather stations | Latest weather observations for NSW | Other Formats
Station Details ID: 074258 Name: DENILIQUIN AIRPORT AWS Lat: -35.56 Lon: 144.95 Height: 94.0 m
Data from the previous 72 hours. | See also: Recent months at Deniliquin
Date/Time
EST
Temp
°C
App
Temp
°C
Dew
Point
Rel
Hum
%
Delta-T
°C
Wind Press
QNH
hPa
Press
MSL
hPa
Rain
since 9 am
mm
Dir
 
Spd
km/h
Gust
km/h
Spd
kts
Gust
kts
01/10:00am 12.8 6.0 2.9 51 4.4 SW 28 39 15 21 1025.1 1025.1 0.0
01/09:30am 11.7 4.7 2.2 52 4.1 SW 28 37 15 20 1025.0 1025.1 0.0
01/09:00am 11.2 5.1 3.0 57 3.6 SW 24 33 13 18 1024.8 1024.9 0.0
01/08:30am 10.0 4.3 2.6 60 3.2 WSW 22 28 12 15 1024.4 1024.5 0.0
01/08:00am 8.7 3.5 3.5 70 2.2 WSW 20 26 11 14 1024.0 1024.0 0.0
01/07:30am 7.4 2.4 3.6 77 1.6 W 19 24 10 13 1023.7 1023.7 0.0
01/07:00am 6.0 1.3 3.2 82 1.2 W 17 24 9 13 1023.3 1023.3 0.0
01/06:30am 4.7 -0.1 2.6 86 0.9 W 17 20 9 11 1022.8 1022.8 0.0
01/06:00am 4.6 0.2 2.5 86 0.8 WNW 15 19 8 10 1022.4 1022.4 0.0
01/05:30am 4.8 0.3 2.2 83 1.0 W 15 20 8 11 1021.8 1021.8 0.0
01/05:00am 5.2 0.4 2.4 82 1.1 W 17 20 9 11 1021.3 1021.3 0.0
01/04:30am 5.1 0.6 2.1 81 1.2 W 15 19 8 10 1020.8 1020.8 0.0
01/04:00am 4.8 0.6 1.8 81 1.2 W 13 17 7 9 1020.4 1020.4 0.0
01/03:30am 5.8 0.9 1.9 76 1.6 W 17 22 9 12 1020.0 1020.0 0.0
01/03:00am 6.6 1.3 1.9 72 1.9 WSW 19 24 10 13 1019.8 1019.8 0.0
01/02:30am 7.3 1.8 2.0 69 2.2 W 20 26 11 14 1019.3 1019.3 0.0
01/02:00am 7.4 1.9 1.9 68 2.3 WSW 20 26 11 14 1019.0 1019.0 0.0
01/01:30am 7.3 1.8 1.8 68 2.3 W 20 28 11 15 1018.7 1018.7 0.0
01/01:00am 8.1 2.2 1.5 63 2.7 W 22 30 12 16 1018.5 1018.5 0.0
01/12:30am 8.2 2.6 1.1 61 2.9 W 20 24 11 13 1018.1 1018.1 0.0
01/12:00am 8.8 3.3 0.8 57 3.2 W 19 24 10 13 1017.9 1017.9 0.0
 
Date/Time
EST
Temp
°C
App
Temp
°C
Dew
Point
Rel
Hum
%
Delta-T
°C
Wind Press
QNH
hPa
Press
MSL
hPa
Rain
since 9 am
mm
Dir
 
Spd
km/h
Gust
km/h
Spd
kts
Gust
kts
30/11:30pm 9.8 3.3 0.4 52 3.8 WSW 24 30 13 16 1017.6 1017.6 0.0
30/11:00pm 10.6 3.3 0.1 48 4.3 WSW 28 37 15 20 1017.2 1017.2 0.0
30/10:30pm 10.9 4.5 0.9 50 4.2 WSW 24 32 13 17 1016.8 1016.8 0.0
30/10:00pm 11.3 5.4 1.8 52 4.0 WSW 22 30 12 16 1016.3 1016.3 0.0
30/09:30pm 12.7 4.9 1.4 46 4.8 WSW 32 46 17 25 1015.7 1015.7 0.0
30/09:00pm 12.9 6.1 3.0 51 4.4 WSW 28 35 15 19 1015.2 1015.2 0.0
30/08:30pm 13.7 6.0 3.2 49 4.7 WSW 33 41 18 22 1014.5 1014.5 0.0
30/08:00pm 13.2 6.8 5.1 58 3.8 WSW 28 35 15 19 1014.0 1014.0 0.0
30/07:30pm 13.5 7.1 5.4 58 3.8 WSW 28 37 15 20 1013.4 1013.4 0.0
30/07:00pm 14.1 4.8 5.2 55 4.2 WSW 43 56 23 30 1012.7 1012.7 0.0
30/06:41pm 14.6 5.6 6.2 57 4.1 WSW 43 61 23 33 1012.3 1012.3 0.0
30/06:30pm 14.6 5.0 6.4 58 4.0 SW 46 59 25 32 1012.1 1012.1 0.0
30/06:00pm 16.6 6.5 7.5 55 4.6 WSW 50 67 27 36 1011.0 1011.0 0.0
30/05:30pm 19.0 7.9 7.8 48 5.8 WSW 56 74 30 40 1009.5 1009.5 0.0
30/05:28pm 19.1 8.3 7.5 47 5.9 WSW 54 74 29 40 1009.3 1009.3 0.0
30/05:26pm 19.4 8.6 7.5 46 6.1 WSW 54 67 29 36 1009.2 1009.2 0.0
30/05:00pm 24.4 14.2 0.7 21 11.1 W 44 63 24 34 1007.9 1007.9 0.0
30/04:58pm 24.5 14.5 0.8 21 11.1 W 43 61 23 33 1007.8 1007.8 0.0
30/04:55pm 24.7 15.2 1.6 22 11.0 W 41 54 22 29 1007.8 1007.8 0.0
30/04:30pm 25.6 15.8 2.3 22 11.3 WNW 43 63 23 34 1007.4 1007.4 0.0
30/04:00pm 25.9 16.4 1.9 21 11.6 WNW 41 61 22 33 1007.4 1007.4 0.0
30/03:30pm 25.6 15.8 3.5 24 10.9 WNW 44 65 24 35 1007.7 1007.7 0.0
30/03:00pm 25.4 15.2 3.4 24 10.9 WNW 46 69 25 37 1007.9 1007.9 0.0
30/02:30pm 25.9 15.3 3.2 23 11.2 WNW 48 67 26 36 1008.2 1008.2 0.0
30/02:01pm 25.8 16.2 4.3 25 10.8 WNW 44 63 24 34 1008.6 1008.6 0.0
30/02:00pm 25.5 15.4 3.5 24 10.9 WNW 46 63 25 34 1008.6 1008.6 0.0
30/01:30pm 25.7 17.0 4.2 25 10.8 NW 39 57 21 31 1009.0 1009.0 0.0
30/01:19pm 25.6 17.4 4.7 26 10.6 WNW 37 56 20 30 1009.2 1009.2 0.0
30/01:00pm 25.0 17.2 4.7 27 10.2 NW 35 50 19 27 1009.5 1009.5 0.0
30/12:30pm 24.3 16.7 4.1 27 10.0 NW 33 46 18 25 1010.3 1010.3 0.0
30/12:00pm 24.3 17.4 4.6 28 9.9 NW 30 39 16 21 1010.6 1010.6 0.0
30/11:32am 23.0 16.6 5.0 31 9.0 NNW 28 50 15 27 1011.0 1011.0 0.0
30/11:30am 23.1 16.7 5.1 31 9.0 NNW 28 39 15 21 1011.1 1011.1 0.0
30/11:00am 22.0 16.6 6.3 36 8.0 NNW 24 32 13 17 1011.8 1011.8 0.0
30/10:30am 21.5 17.1 7.3 40 7.3 N 20 26 11 14 1012.3 1012.3 0.0
30/10:00am 20.3 16.9 7.7 44 6.5 NW 15 22 8 12 1012.8 1012.8 0.0
30/09:30am 19.0 16.2 8.6 51 5.4 WNW 13 20 7 11 1013.4 1013.4 0.0
30/09:00am 17.8 15.2 9.2 57 4.5 W 13 17 7 9 1013.6 1013.6 0.0
30/08:30am 16.6 13.6 9.1 61 3.9 W 15 22 8 12 1013.7 1013.7 0.0
30/08:00am 15.0 13.2 9.6 70 2.8 W 9 13 5 7 1013.5 1013.5 0.0
30/07:30am 13.0 10.6 8.7 75 2.2 W 11 15 6 8 1013.4 1013.4 0.0
30/07:00am 10.8 10.1 8.7 87 1.0 NW 2 7 1 4 1013.2 1013.2 0.0
30/06:30am 8.8 7.0 7.1 89 0.8 N 6 7 3 4 1012.9 1012.9 0.0
30/06:00am 8.7 6.2 6.7 87 0.9 W 9 11 5 6 1012.8 1012.8 0.0
30/05:30am 9.2 6.0 7.0 86 1.0 W 13 17 7 9 1012.5 1012.5 0.0
30/05:00am 10.2 7.8 6.9 80 1.6 WNW 9 11 5 6 1012.3 1012.3 0.0
30/04:30am 11.1 8.4 7.2 77 1.9 N 11 13 6 7 1011.8 1011.8 0.0
30/04:00am 11.8 8.4 7.5 75 2.1 NNE 15 17 8 9 1011.6 1011.6 0.0
30/03:30am 11.5 8.8 7.4 76 2.0 NNE 11 13 6 7 1011.7 1011.7 0.0
30/03:00am 11.7 9.5 7.8 77 1.9 NNE 9 11 5 6 1011.9 1011.9 0.0
30/02:30am 12.1 9.1 7.8 75 2.1 NE 13 15 7 8 1012.1 1012.1 0.0
30/02:00am 12.7 9.4 8.2 74 2.2 NE 15 17 8 9 1012.4 1012.4 0.0
30/01:30am 12.4 9.7 8.9 79 1.8 NE 13 17 7 9 1012.7 1012.7 0.0
30/01:00am 11.3 9.0 7.6 78 1.8 NE 9 11 5 6 1012.9 1012.9 0.0
30/12:30am 11.7 9.8 7.4 75 2.1 ENE 7 9 4 5 1013.1 1013.1 0.0
30/12:00am 11.6 9.7 7.7 77 1.9 ENE 7 9 4 5 1013.2 1013.2 0.0
 
Date/Time
EST
Temp
°C
App
Temp
°C
Dew
Point
Rel
Hum
%
Delta-T
°C
Wind Press
QNH
hPa
Press
MSL
hPa
Rain
since 9 am
mm
Dir
 
Spd
km/h
Gust
km/h
Spd
kts
Gust
kts
29/11:30pm 11.6 9.4 7.7 77 1.9 ENE 9 11 5 6 1013.2 1013.2 0.0
29/11:00pm 11.7 9.6 8.2 79 1.7 ENE 9 11 5 6 1013.5 1013.5 0.0
29/10:30pm 11.4 8.9 8.4 82 1.5 E 11 13 6 7 1013.8 1013.8 0.0
29/10:00pm 11.1 8.9 8.0 81 1.5 E 9 11 5 6 1013.9 1013.9 0.0
29/09:30pm 12.3 10.9 9.5 83 1.4 E 7 11 4 6 1014.2 1014.2 0.0
29/09:00pm 12.7 11.2 9.2 79 1.8 ESE 7 9 4 5 1014.1 1014.1 0.0
29/08:30pm 13.4 12.1 9.3 76 2.1 SE 6 7 3 4 1014.2 1014.2 0.0
29/08:00pm 13.7 12.8 9.2 74 2.3 ESE 4 6 2 3 1014.0 1014.0 0.0
29/07:30pm 15.2 13.7 9.1 67 3.1 ESE 7 7 4 4 1013.7 1013.7 0.0
29/07:00pm 16.2 15.0 9.4 64 3.5 WSW 6 7 3 4 1013.5 1013.5 0.0
29/06:30pm 19.0 18.1 7.8 48 5.8 W 2 7 1 4 1013.2 1013.2 0.0
29/06:00pm 21.0 19.9 8.6 45 6.5 WNW 4 7 2 4 1013.2 1013.2 0.0
29/05:30pm 21.5 19.0 6.6 38 7.6 WNW 9 13 5 7 1013.1 1013.1 0.0
29/05:00pm 21.9 19.4 6.6 37 7.8 NW 9 15 5 8 1013.2 1013.2 0.0
29/04:30pm 21.7 18.3 6.0 36 7.9 NNW 13 20 7 11 1013.1 1013.1 0.0
29/04:00pm 22.2 19.3 6.4 36 8.1 NNW 11 15 6 8 1013.3 1013.3 0.0
29/03:30pm 22.0 19.0 5.8 35 8.2 W 11 19 6 10 1013.5 1013.5 0.0
29/03:00pm 22.0 19.3 7.4 39 7.6 WNW 11 19 6 10 1013.8 1013.8 0.0
29/02:30pm 21.5 18.9 7.7 41 7.2 WNW 11 24 6 13 1014.0 1014.0 0.0
29/02:00pm 21.6 17.7 7.1 39 7.5 W 17 24 9 13 1014.3 1014.3 0.0
29/01:30pm 20.8 17.6 6.7 40 7.2 NW 13 17 7 9 1014.6 1014.6 0.0
29/01:00pm 20.6 16.7 7.2 42 6.9 NNW 17 26 9 14 1015.0 1015.0 0.0
29/12:30pm 20.0 16.8 6.7 42 6.7 WNW 13 20 7 11 1015.1 1015.1 0.0
29/12:00pm 19.6 15.7 7.0 44 6.4 W 17 22 9 12 1015.4 1015.5 0.0
29/11:30am 18.8 14.7 6.3 44 6.2 W 17 22 9 12 1015.6 1015.6 0.0
29/11:00am 18.9 15.4 7.4 47 5.9 W 15 30 8 16 1015.9 1015.9 0.0
29/10:30am 17.8 14.8 7.5 51 5.2 WSW 13 20 7 11 1016.1 1016.1 0.0
29/10:00am 17.4 13.4 6.6 49 5.4 W 17 28 9 15 1016.2 1016.2 0.0
29/09:30am 17.4 13.8 8.3 55 4.7 W 17 24 9 13 1016.3 1016.3 0.0
29/09:00am 16.2 12.1 8.7 61 3.8 W 20 28 11 15 1016.4 1016.4 0.0
29/08:30am 15.4 11.0 9.1 66 3.2 W 22 30 12 16 1016.0 1016.0 0.0
29/08:00am 14.5 10.5 8.9 69 2.9 W 20 28 11 15 1015.8 1015.8 0.0
29/07:30am 13.0 9.4 8.3 73 2.3 W 17 22 9 12 1015.6 1015.6 0.0
29/07:00am 11.2 8.2 7.5 78 1.8 W 13 19 7 10 1015.1 1015.1 0.0
29/06:30am 9.7 6.4 6.4 80 1.5 WNW 13 15 7 8 1014.7 1014.7 0.0
29/06:00am 9.8 6.4 6.0 77 1.8 WNW 13 17 7 9 1014.3 1014.3 0.0
29/05:30am 10.1 6.7 5.9 75 1.9 W 13 15 7 8 1013.8 1013.8 0.0
29/05:00am 9.9 6.1 5.9 76 1.8 W 15 17 8 9 1013.3 1013.3 0.0
29/04:30am 10.9 6.7 5.7 70 2.4 W 17 20 9 11 1013.1 1013.1 0.0
29/04:00am 11.3 7.2 4.5 63 3.1 W 15 19 8 10 1013.0 1013.0 0.0
29/03:30am 12.1 7.6 4.3 59 3.5 W 17 20 9 11 1012.8 1012.8 0.0
29/03:00am 13.1 8.5 3.5 52 4.3 WSW 17 20 9 11 1012.9 1012.9 0.0
29/02:30am 15.0 7.2 2.9 44 5.5 WSW 33 44 18 24 1012.5 1012.5 0.0
29/02:20am 15.3 8.1 3.1 44 5.5 WSW 30 46 16 25 1012.4 1012.4 0.0
29/02:00am 15.4 10.7 5.3 51 4.8 W 19 24 10 13 1012.1 1012.1 0.0
29/01:30am 16.7 11.4 6.8 52 4.9 WSW 24 32 13 17 1012.1 1012.1 0.0
29/01:00am 18.4 13.7 5.9 44 6.2 W 20 28 11 15 1011.5 1011.5 0.0
29/12:30am 20.4 15.0 2.7 31 8.3 WNW 20 28 11 15 1010.8 1010.8 0.0
29/12:00am 21.4 14.1 2.2 28 9.0 N 30 43 16 23 1008.9 1008.9 0.0
 
Date/Time
EST
Temp
°C
App
Temp
°C
Dew
Point
Rel
Hum
%
Delta-T
°C
Wind Press
QNH
hPa
Press
MSL
hPa
Rain
since 9 am
mm
Dir
 
Spd
km/h
Gust
km/h
Spd
kts
Gust
kts
28/11:30pm 21.7 14.7 1.9 27 9.2 N 28 35 15 19 1008.8 1008.8 0.0
28/11:00pm 21.9 14.9 2.1 27 9.3 N 28 37 15 20 1008.9 1008.9 0.0
28/10:30pm 22.8 15.0 1.8 25 9.9 N 32 43 17 23 1009.0 1009.0 0.0
28/10:00pm 22.7 16.1 2.2 26 9.7 N 26 35 14 19 1009.3 1009.3 0.0
28/09:30pm 23.2 16.5 1.5 24 10.2 N 26 37 14 20 1009.4 1009.4 0.0
28/09:00pm 23.6 16.5 1.3 23 10.5 N 28 37 15 20 1009.5 1009.5 0.0
28/08:30pm 24.0 17.7 1.6 23 10.6 N 24 32 13 17 1009.5 1009.5 0.0
28/08:00pm 24.1 18.1 1.1 22 10.8 N 22 28 12 15 1009.5 1009.5 0.0
28/07:30pm 24.2 18.8 1.2 22 10.8 N 19 24 10 13 1009.4 1009.4 0.0
28/07:00pm 25.3 19.2 0.7 20 11.6 N 22 28 12 15 1009.1 1009.1 0.0
28/06:30pm 25.1 19.5 1.3 21 11.3 N 20 26 11 14 1009.0 1009.0 0.0
28/06:00pm 25.8 20.5 1.8 21 11.6 N 19 28 10 15 1009.1 1009.1 0.0
28/05:30pm 27.3 20.5 0.9 18 12.6 N 26 35 14 19 1008.9 1008.9 0.0
28/05:00pm 27.5 20.2 0.3 17 12.9 N 28 39 15 21 1008.9 1008.9 0.0
28/04:30pm 27.9 20.3 0.6 17 13.0 N 30 39 16 21 1009.1 1009.1 0.0
28/04:00pm 28.6 19.4 1.2 17 13.3 N 39 52 21 28 1009.9 1009.9 0.0
28/03:30pm 28.7 20.1 0.4 16 13.5 N 35 50 19 27 1010.5 1010.5 0.0
28/03:11pm 28.9 21.0 2.2 18 13.2 NNW 33 52 18 28 1010.8 1010.8 0.0
28/03:00pm 28.6 19.6 0.3 16 13.5 NNW 37 54 20 29 1011.2 1011.2 0.0
28/02:55pm 28.9 20.4 0.6 16 13.6 N 35 54 19 29 1011.3 1011.3 0.0
28/02:30pm 28.8 20.8 0.5 16 13.6 N 32 44 17 24 1011.9 1011.9 0.0
28/02:12pm 28.6 20.3 2.0 18 13.1 N 35 56 19 30 1011.6 1011.6 0.0
28/02:00pm 28.7 20.3 3.5 20 12.7 N 37 54 20 29 1011.1 1011.1 0.0
28/01:50pm 28.4 19.4 2.6 19 12.8 N 39 61 21 33 1010.9 1010.9 0.0
28/01:30pm 28.1 19.1 2.3 19 12.7 N 39 56 21 30 1011.2 1011.2 0.0
28/01:00pm 27.7 19.0 4.1 22 12.0 N 39 57 21 31 1011.8 1011.8 0.0
28/12:52pm 27.6 19.5 3.3 21 12.1 N 35 57 19 31 1011.9 1011.9 0.0
28/12:30pm 27.7 19.8 4.1 22 12.0 N 35 50 19 27 1012.5 1012.5 0.0
28/12:14pm 27.2 19.9 4.3 23 11.6 N 32 59 17 32 1012.7 1012.7 0.0
28/12:00pm 27.1 19.4 5.4 25 11.2 N 35 48 19 26 1013.0 1013.0 0.0
28/11:30am 26.3 18.7 5.8 27 10.6 N 35 48 19 26 1014.2 1014.2 0.0
28/11:08am 25.7 19.2 6.3 29 10.1 N 30 48 16 26 1014.7 1014.7 0.0
28/11:00am 25.5 18.9 7.6 32 9.5 N 32 41 17 22 1015.1 1015.1 0.0
28/10:30am 23.9 17.6 7.5 35 8.6 N 30 41 16 22 1015.9 1015.9 0.0

Other Formats:

Comma delimited format used in spreadsheet applications
http://www.bom.gov.au/fwo/IDN60801/IDN60801.95869.axf

JavaScript Object Notation format (JSON) in row-major order
http://www.bom.gov.au/fwo/IDN60801/IDN60801.95869.json